createdAt,value
2022-08-12T00:01:01.463Z,19.20
2022-08-12T00:03:47.182Z,18.50
2022-08-12T00:06:33.378Z,19.00
2022-08-12T00:09:24.401Z,18.70
2022-08-12T00:12:13.008Z,18.80
2022-08-12T00:14:58.596Z,18.30
2022-08-12T00:17:44.043Z,18.90
2022-08-12T00:20:29.880Z,18.40
2022-08-12T00:23:16.370Z,18.80
2022-08-12T00:26:21.798Z,19.00
2022-08-12T00:29:11.483Z,18.70
2022-08-12T00:31:57.713Z,18.70
2022-08-12T00:34:43.059Z,18.80
2022-08-12T00:37:28.880Z,18.30
2022-08-12T00:40:15.197Z,18.20
2022-08-12T00:42:42.933Z,18.70
2022-08-12T00:45:10.497Z,18.30
2022-08-12T00:47:38.861Z,18.40
2022-08-12T00:50:06.967Z,18.60
2022-08-12T00:52:35.710Z,17.60
2022-08-12T00:55:04.740Z,18.40
2022-08-12T00:57:37.078Z,18.40
2022-08-12T01:00:11.164Z,17.80
2022-08-12T01:02:41.692Z,17.60
2022-08-12T01:05:36.232Z,17.70
2022-08-12T01:08:22.870Z,17.50
2022-08-12T01:11:09.256Z,17.50
2022-08-12T01:13:39.832Z,17.40
2022-08-12T01:16:09.056Z,17.40
2022-08-12T01:18:39.500Z,18.10
2022-08-12T01:21:27.985Z,17.70
2022-08-12T01:24:30.194Z,18.20
2022-08-12T01:27:01.296Z,17.80
2022-08-12T01:29:33.231Z,17.50
2022-08-12T01:32:08.751Z,17.20
2022-08-12T01:34:38.599Z,17.70
2022-08-12T01:37:09.121Z,17.70
2022-08-12T01:40:34.653Z,17.50
2022-08-12T01:42:49.074Z,18.10
2022-08-12T01:45:16.733Z,18.30
2022-08-12T01:48:09.597Z,18.00
2022-08-12T01:51:04.577Z,17.30
2022-08-12T01:53:51.006Z,17.70
2022-08-12T01:56:21.967Z,17.00
2022-08-12T01:59:08.963Z,18.00
2022-08-12T02:01:40.253Z,17.00
2022-08-12T02:04:42.577Z,17.10
2022-08-12T02:07:52.228Z,17.10
2022-08-12T02:11:10.769Z,17.30
2022-08-12T02:14:05.590Z,16.90
2022-08-12T02:16:58.945Z,16.70
2022-08-12T02:19:38.065Z,17.10
2022-08-12T02:22:37.693Z,17.00
2022-08-12T02:25:23.008Z,17.50
2022-08-12T02:27:53.950Z,17.30
2022-08-12T02:30:42.048Z,16.60
2022-08-12T02:33:10.950Z,17.10
2022-08-12T02:35:39.834Z,17.60
2022-08-12T02:38:09.757Z,16.80
2022-08-12T02:40:43.116Z,17.50
2022-08-12T02:43:45.216Z,17.30
2022-08-12T02:46:15.027Z,16.70
2022-08-12T02:48:42.044Z,17.40
2022-08-12T02:51:11.884Z,16.60
2022-08-12T02:53:39.767Z,16.80
2022-08-12T02:56:07.252Z,17.00
2022-08-12T02:58:36.035Z,17.30
2022-08-12T03:01:11.767Z,17.40
2022-08-12T03:03:40.234Z,16.50
2022-08-12T03:06:17.454Z,16.90
2022-08-12T03:08:51.878Z,16.80
2022-08-12T03:11:29.193Z,17.60
2022-08-12T03:14:00.579Z,17.00
2022-08-12T03:16:30.497Z,16.70
2022-08-12T03:19:00.598Z,17.20
2022-08-12T03:21:52.686Z,17.20
2022-08-12T03:24:18.583Z,16.40
2022-08-12T03:26:50.200Z,17.10
2022-08-12T03:29:18.840Z,16.30
2022-08-12T03:31:46.823Z,16.60
2022-08-12T03:34:23.548Z,16.30
2022-08-12T03:36:55.319Z,16.60
2022-08-12T03:39:36.094Z,16.50
2022-08-12T03:42:19.012Z,16.40
2022-08-12T03:45:04.425Z,16.70
2022-08-12T03:47:52.224Z,16.10
2022-08-12T03:50:38.423Z,16.40
2022-08-12T03:53:26.648Z,16.90
2022-08-12T03:56:13.156Z,16.20
2022-08-12T03:58:59.803Z,16.50
2022-08-12T04:01:27.944Z,16.80
2022-08-12T04:03:55.447Z,16.30
2022-08-12T04:06:34.894Z,16.30
2022-08-12T04:09:14.893Z,16.60
2022-08-12T04:12:02.865Z,16.10
2022-08-12T04:14:30.086Z,16.80
2022-08-12T04:16:57.454Z,16.70
2022-08-12T04:19:26.432Z,16.70
2022-08-12T04:22:01.163Z,16.30
2022-08-12T04:24:31.959Z,16.30
2022-08-12T04:26:59.251Z,16.60
2022-08-12T04:31:59.995Z,15.20
2022-08-12T04:34:28.240Z,16.20
2022-08-12T04:36:55.182Z,16.20
2022-08-12T04:39:23.249Z,16.70
2022-08-12T04:41:58.148Z,16.00
2022-08-12T04:44:26.947Z,16.20
2022-08-12T04:46:54.635Z,15.90
2022-08-12T04:49:24.214Z,15.90
2022-08-12T04:51:54.694Z,15.80
2022-08-12T04:54:27.487Z,16.10
2022-08-12T04:57:03.116Z,16.70
2022-08-12T04:59:46.550Z,16.30
2022-08-12T05:02:22.866Z,16.60
2022-08-12T05:04:52.166Z,16.20
2022-08-12T05:07:20.624Z,16.20
2022-08-12T05:09:58.908Z,16.90
2022-08-12T05:12:36.672Z,16.50
2022-08-12T05:15:19.401Z,16.50
2022-08-12T05:17:55.941Z,16.00
2022-08-12T05:20:26.184Z,16.10
2022-08-12T05:26:46.131Z,16.60
2022-08-12T05:30:07.352Z,16.50
2022-08-12T05:32:10.691Z,16.60
2022-08-12T05:34:37.509Z,17.00
2022-08-12T05:37:04.651Z,17.40
2022-08-12T05:39:31.622Z,17.10
2022-08-12T05:41:58.440Z,17.00
2022-08-12T05:44:25.522Z,16.60
2022-08-12T05:46:52.308Z,17.80
2022-08-12T05:49:19.269Z,16.70
2022-08-12T05:51:46.119Z,17.10
2022-08-12T05:54:13.103Z,17.20
2022-08-12T05:56:41.412Z,17.90
2022-08-12T05:59:11.503Z,17.80
2022-08-12T06:02:12.787Z,18.20
2022-08-12T06:04:26.028Z,18.10
2022-08-12T06:06:53.674Z,18.40
2022-08-12T06:09:22.808Z,17.60
2022-08-12T06:12:04.823Z,18.30
2022-08-12T06:14:39.266Z,18.20
2022-08-12T06:17:09.122Z,18.20
2022-08-12T06:20:28.138Z,18.00
2022-08-12T06:22:23.481Z,18.50
2022-08-12T07:10:59.372Z,21.50
2022-08-12T07:14:02.566Z,21.90
2022-08-12T07:16:50.640Z,22.00
2022-08-12T07:19:18.260Z,21.70
2022-08-12T07:21:59.613Z,22.30
2022-08-12T07:24:29.650Z,22.30
2022-08-12T07:26:56.612Z,22.50
2022-08-12T07:29:23.647Z,22.70
2022-08-12T07:31:51.188Z,24.70
2022-08-12T07:34:18.211Z,25.20
2022-08-12T07:36:47.754Z,25.50
2022-08-12T07:39:14.976Z,24.80
2022-08-12T07:41:42.687Z,25.10
2022-08-12T07:44:09.831Z,24.70
2022-08-12T07:46:39.534Z,24.40
2022-08-12T07:49:10.811Z,24.10
2022-08-12T07:51:38.653Z,24.40
2022-08-12T07:54:09.892Z,25.40
2022-08-12T07:56:39.192Z,26.80
2022-08-12T07:59:08.733Z,26.80
2022-08-12T08:01:40.828Z,26.90
2022-08-12T08:04:26.854Z,27.10
2022-08-12T08:06:54.645Z,26.90
2022-08-12T08:09:24.235Z,27.00
2022-08-12T08:12:19.360Z,26.80
2022-08-12T08:14:48.340Z,26.80
2022-08-12T08:17:17.644Z,26.70
2022-08-12T08:20:03.961Z,26.90
2022-08-12T08:22:42.070Z,26.90
2022-08-12T08:25:34.484Z,26.70
2022-08-12T08:28:07.701Z,26.80
2022-08-12T08:30:35.637Z,27.00
2022-08-12T08:33:02.581Z,27.00
2022-08-12T08:35:49.224Z,26.90
2022-08-12T08:38:27.351Z,27.10
2022-08-12T08:42:15.146Z,27.30
2022-08-12T08:44:06.478Z,27.40
2022-08-12T08:46:37.630Z,27.40
2022-08-12T08:49:05.455Z,27.60
2022-08-12T08:51:32.721Z,27.80
2022-08-12T08:53:59.574Z,27.90
2022-08-12T08:56:29.093Z,27.90
2022-08-12T08:58:57.851Z,28.00
2022-08-12T09:01:25.210Z,28.20
2022-08-12T09:05:09.111Z,28.30
2022-08-12T09:06:53.830Z,28.30
2022-08-12T09:09:23.879Z,28.40
2022-08-12T09:12:11.714Z,28.50
2022-08-12T09:14:46.883Z,28.60
2022-08-12T09:17:21.709Z,28.90
2022-08-12T09:19:56.863Z,29.00
2022-08-12T09:22:28.591Z,28.80
2022-08-12T09:25:26.099Z,28.90
2022-08-12T09:28:03.637Z,29.00
2022-08-12T09:30:41.656Z,29.10
2022-08-12T09:33:15.039Z,29.30
2022-08-12T09:36:04.560Z,29.40
2022-08-12T09:38:35.217Z,29.30
2022-08-12T09:42:08.450Z,29.70
2022-08-12T09:44:37.796Z,29.60
2022-08-12T09:46:57.284Z,29.90
2022-08-12T09:49:27.505Z,29.80
2022-08-12T09:51:55.563Z,30.00
2022-08-12T09:54:33.293Z,30.10
2022-08-12T09:58:46.521Z,29.90
2022-08-12T10:00:13.044Z,30.40
2022-08-12T10:03:00.247Z,30.30
2022-08-12T10:06:26.927Z,30.10
2022-08-12T10:08:17.488Z,30.40
2022-08-12T10:11:06.769Z,30.10
2022-08-12T10:13:42.505Z,30.20
2022-08-12T10:16:33.949Z,30.60
2022-08-12T10:19:06.164Z,30.00
2022-08-12T10:21:45.167Z,30.10
2022-08-12T10:24:20.040Z,30.30
2022-08-12T10:27:06.303Z,30.30
2022-08-12T10:30:03.578Z,30.40
2022-08-12T10:32:43.912Z,30.40
2022-08-12T10:35:15.544Z,30.00
2022-08-12T10:38:35.973Z,30.20
2022-08-12T10:40:34.371Z,30.00
2022-08-12T10:43:23.397Z,30.50
2022-08-12T10:45:58.211Z,30.20
2022-08-12T10:48:33.529Z,30.30
2022-08-12T10:51:56.513Z,30.50
2022-08-12T10:53:59.980Z,30.00
2022-08-12T10:56:34.293Z,31.00
2022-08-12T10:59:05.234Z,30.30
2022-08-12T11:04:17.210Z,30.50
2022-08-12T11:04:35.517Z,30.10
2022-08-12T11:08:36.034Z,30.60
2022-08-12T11:09:59.955Z,30.40
2022-08-12T11:12:57.874Z,30.10
2022-08-12T11:15:20.778Z,30.20
2022-08-12T11:17:54.833Z,30.40
2022-08-12T11:20:30.639Z,30.30
2022-08-12T11:23:03.901Z,30.30
2022-08-12T11:25:57.360Z,30.20
2022-08-12T11:28:34.585Z,30.60
2022-08-12T11:31:03.638Z,30.30
2022-08-12T11:34:05.996Z,30.40
2022-08-12T11:36:18.112Z,30.20
2022-08-12T11:38:50.861Z,30.40
2022-08-12T11:41:31.150Z,30.30
2022-08-12T11:44:36.387Z,30.10
2022-08-12T11:46:51.254Z,30.20
2022-08-12T11:49:20.476Z,30.10
2022-08-12T11:51:58.054Z,30.10
2022-08-12T11:54:24.952Z,29.90
2022-08-12T11:56:59.072Z,29.80
2022-08-12T12:02:17.556Z,29.70
2022-08-12T12:04:46.341Z,30.00
2022-08-12T12:07:22.529Z,30.10
2022-08-12T12:09:52.978Z,29.90
2022-08-12T12:12:22.297Z,30.20
2022-08-12T12:14:54.877Z,29.70
2022-08-12T12:17:38.093Z,29.70
2022-08-12T12:20:09.512Z,29.90
2022-08-12T12:22:37.450Z,30.30
2022-08-12T12:25:12.720Z,29.80
2022-08-12T12:28:04.478Z,30.10
2022-08-12T12:30:32.712Z,29.80
2022-08-12T12:32:59.638Z,30.10
2022-08-12T12:36:18.269Z,30.30
2022-08-12T12:38:15.003Z,30.20
2022-08-12T12:40:44.848Z,29.60
2022-08-12T12:43:15.816Z,29.70
2022-08-12T12:45:44.631Z,30.10
2022-08-12T12:48:15.930Z,29.90
2022-08-12T12:51:49.030Z,30.00
2022-08-12T12:54:08.716Z,30.00
2022-08-12T12:56:40.546Z,30.00
2022-08-12T12:59:55.057Z,29.80
2022-08-12T13:01:55.273Z,29.80
2022-08-12T13:04:22.533Z,29.40
2022-08-12T13:06:52.130Z,29.60
2022-08-12T13:09:22.898Z,29.60
2022-08-12T13:11:53.344Z,29.60
2022-08-12T13:14:29.590Z,29.50
2022-08-12T13:17:02.972Z,29.70
2022-08-12T13:19:43.379Z,29.50
2022-08-12T13:22:19.295Z,29.80
2022-08-12T13:24:51.952Z,29.40
2022-08-12T13:27:48.311Z,29.60
2022-08-12T13:30:23.660Z,29.40
2022-08-12T13:32:59.463Z,29.40
2022-08-12T13:36:02.736Z,29.20
2022-08-12T13:38:26.869Z,29.40
2022-08-12T13:41:11.705Z,29.20
2022-08-12T13:43:39.301Z,29.10
2022-08-12T13:46:12.251Z,29.10
2022-08-12T13:48:44.995Z,29.00
2022-08-12T13:51:13.510Z,29.10
2022-08-12T13:53:57.537Z,29.00
2022-08-12T13:56:34.466Z,29.20
2022-08-12T13:59:07.876Z,29.20
2022-08-12T14:01:40.487Z,29.20
2022-08-12T14:04:11.868Z,28.90
2022-08-12T14:06:43.405Z,29.00
2022-08-12T14:09:17.985Z,29.20
2022-08-12T14:11:58.406Z,29.00
2022-08-12T14:14:27.114Z,29.20
2022-08-12T14:16:53.953Z,29.20
2022-08-12T14:19:22.590Z,29.20
2022-08-12T14:22:01.033Z,29.50
2022-08-12T14:24:40.321Z,29.30
2022-08-12T14:27:12.186Z,29.50
2022-08-12T14:30:04.412Z,29.20
2022-08-12T14:32:35.512Z,29.50
2022-08-12T14:35:09.702Z,29.40
2022-08-12T14:37:57.062Z,29.40
2022-08-12T14:40:28.516Z,29.10
2022-08-12T14:42:57.614Z,29.10
2022-08-12T14:45:45.481Z,29.00
2022-08-12T14:48:13.617Z,28.70
2022-08-12T14:51:09.588Z,28.70
2022-08-12T14:57:19.608Z,29.00
2022-08-12T14:59:26.441Z,28.80
2022-08-12T15:02:20.738Z,28.70
2022-08-12T15:04:55.998Z,28.90
2022-08-12T15:07:34.453Z,28.80
2022-08-12T15:10:10.919Z,29.10
2022-08-12T15:12:40.521Z,29.10
2022-08-12T15:15:08.887Z,29.10
2022-08-12T15:17:38.605Z,28.80
2022-08-12T15:20:31.222Z,28.70
2022-08-12T15:22:55.618Z,28.80
2022-08-12T15:25:22.973Z,29.10
2022-08-12T15:28:03.901Z,28.60
2022-08-12T15:30:33.905Z,28.80
2022-08-12T15:33:00.829Z,28.90
2022-08-12T15:35:53.259Z,28.90
2022-08-12T15:38:25.164Z,28.60
2022-08-12T15:40:53.990Z,28.70
2022-08-12T15:43:35.663Z,28.80
2022-08-12T15:46:15.650Z,28.80
2022-08-12T15:48:46.798Z,28.90
2022-08-12T15:51:58.479Z,28.70
2022-08-12T15:54:33.083Z,28.70
2022-08-12T15:57:08.039Z,28.60
2022-08-12T16:00:00.166Z,28.80
2022-08-12T16:02:27.070Z,29.30
2022-08-12T16:04:56.134Z,28.90
2022-08-12T16:07:25.818Z,29.00
2022-08-12T16:10:05.616Z,29.40
2022-08-12T16:12:42.255Z,29.40
2022-08-12T16:15:13.441Z,29.10
2022-08-12T16:18:17.925Z,29.20
2022-08-12T16:20:34.853Z,28.90
2022-08-12T16:23:50.999Z,28.80
2022-08-12T16:26:05.665Z,28.80
2022-08-12T16:28:42.120Z,28.50
2022-08-12T16:31:14.496Z,28.50
2022-08-12T16:33:59.262Z,28.60
2022-08-12T16:36:28.745Z,28.60
2022-08-12T16:38:55.736Z,28.40
2022-08-12T16:41:23.583Z,28.40
2022-08-12T16:43:53.040Z,28.10
2022-08-12T16:46:31.120Z,28.40
2022-08-12T16:49:08.589Z,28.30
2022-08-12T16:51:41.992Z,28.20
2022-08-12T16:54:19.104Z,28.40
2022-08-12T16:56:51.150Z,28.30
2022-08-12T16:59:22.540Z,28.20
2022-08-12T17:01:51.719Z,28.30
2022-08-12T17:04:19.031Z,28.30
2022-08-12T17:06:47.926Z,28.40
2022-08-12T17:09:18.990Z,28.30
2022-08-12T17:11:49.828Z,28.30
2022-08-12T17:14:22.934Z,28.10
2022-08-12T17:16:52.142Z,28.10
2022-08-12T17:19:20.591Z,28.00
2022-08-12T17:22:09.793Z,28.10
2022-08-12T17:24:43.850Z,28.00
2022-08-12T17:27:19.327Z,27.80
2022-08-12T17:30:00.542Z,27.90
2022-08-12T17:32:35.852Z,27.80
2022-08-12T17:35:23.318Z,27.60
2022-08-12T17:37:59.877Z,27.60
2022-08-12T17:40:34.781Z,27.60
2022-08-12T17:43:51.876Z,27.40
2022-08-12T17:45:58.914Z,27.30
2022-08-12T17:48:34.474Z,27.40
2022-08-12T17:51:09.222Z,27.40
2022-08-12T17:54:11.376Z,27.50
2022-08-12T17:56:32.218Z,27.40
2022-08-12T17:59:01.036Z,27.30
2022-08-12T18:01:29.611Z,27.20
2022-08-12T18:04:20.889Z,27.10
2022-08-12T18:06:50.594Z,27.00
2022-08-12T18:09:19.347Z,26.90
2022-08-12T18:12:08.253Z,26.90
2022-08-12T18:14:37.219Z,26.60
2022-08-12T18:17:08.496Z,26.60
2022-08-12T18:20:05.201Z,26.60
2022-08-12T18:22:30.622Z,26.20
2022-08-12T18:25:03.684Z,26.20
2022-08-12T18:27:43.605Z,26.20
2022-08-12T18:30:20.303Z,26.20
2022-08-12T18:33:03.645Z,26.00
2022-08-12T18:35:46.947Z,25.90
2022-08-12T18:38:19.849Z,25.90
2022-08-12T18:41:07.402Z,25.80
2022-08-12T18:43:58.872Z,26.00
2022-08-12T18:46:53.677Z,25.70
2022-08-12T18:49:39.292Z,25.70
2022-08-12T18:52:08.691Z,25.60
2022-08-12T18:54:49.264Z,25.70
2022-08-12T18:58:06.491Z,25.60
2022-08-12T19:00:17.912Z,25.40
2022-08-12T19:02:49.026Z,25.40
2022-08-12T19:05:19.491Z,25.30
2022-08-12T19:08:01.710Z,25.20
2022-08-12T19:10:32.007Z,25.00
2022-08-12T19:13:24.384Z,24.80
2022-08-12T19:15:57.796Z,24.60
2022-08-12T19:18:29.430Z,24.50
2022-08-12T19:20:58.324Z,24.50
2022-08-12T19:23:27.780Z,24.50
2022-08-12T19:26:03.604Z,24.20
2022-08-12T19:28:34.755Z,24.00
2022-08-12T19:31:56.472Z,24.00
2022-08-12T19:37:38.464Z,23.90
2022-08-12T19:40:30.574Z,23.80
2022-08-12T19:43:19.410Z,24.00
2022-08-12T19:45:57.082Z,24.00
2022-08-12T19:48:37.202Z,23.80
2022-08-12T19:51:24.317Z,23.90
2022-08-12T19:53:57.474Z,23.50
2022-08-12T19:56:27.537Z,23.80
2022-08-12T19:59:18.719Z,23.00
2022-08-12T20:02:02.918Z,22.90
2022-08-12T20:04:32.412Z,23.60
2022-08-12T20:07:00.097Z,23.60
2022-08-12T20:09:28.355Z,22.80
2022-08-12T20:12:12.294Z,23.10
2022-08-12T20:14:45.665Z,22.70
2022-08-12T20:17:14.479Z,23.30
2022-08-12T20:20:01.392Z,22.60
2022-08-12T20:22:39.327Z,22.60
2022-08-12T20:25:11.948Z,22.70
2022-08-12T20:28:04.033Z,22.80
2022-08-12T20:30:37.476Z,23.10
2022-08-12T20:33:23.092Z,22.60
2022-08-12T20:36:13.734Z,22.60
2022-08-12T20:38:46.870Z,22.60
2022-08-12T20:41:16.736Z,22.30
2022-08-12T20:43:49.389Z,22.20
2022-08-12T20:46:21.240Z,22.10
2022-08-12T20:48:54.409Z,22.30
2022-08-12T20:51:22.631Z,22.10
2022-08-12T20:53:53.901Z,22.30
2022-08-12T20:56:38.438Z,22.30
2022-08-12T20:59:14.700Z,22.40
2022-08-12T21:01:53.962Z,22.20
2022-08-12T21:04:40.191Z,22.20
2022-08-12T21:07:14.342Z,22.10
2022-08-12T21:10:06.035Z,21.90
2022-08-12T21:12:38.074Z,21.50
2022-08-12T21:15:17.590Z,21.70
2022-08-12T21:18:10.661Z,21.60
2022-08-12T21:20:52.741Z,21.90
2022-08-12T21:23:23.873Z,21.50
2022-08-12T21:26:01.074Z,21.60
2022-08-12T21:28:31.683Z,21.70
2022-08-12T21:32:34.976Z,21.50
2022-08-12T21:34:07.232Z,21.30
2022-08-12T21:36:37.382Z,21.40
2022-08-12T21:39:21.119Z,21.10
2022-08-12T21:41:52.136Z,21.10
2022-08-12T21:44:24.771Z,21.40
2022-08-12T21:47:20.838Z,21.50
2022-08-12T21:50:03.060Z,21.30
2022-08-12T21:52:41.112Z,21.00
2022-08-12T21:55:17.241Z,21.30
2022-08-12T21:57:50.588Z,20.90
2022-08-12T22:00:19.839Z,21.20
2022-08-12T22:03:04.948Z,21.00
2022-08-12T22:05:50.486Z,21.30
2022-08-12T22:08:22.062Z,20.90
2022-08-12T22:10:56.368Z,21.10
2022-08-12T22:14:07.377Z,20.90
2022-08-12T22:16:14.779Z,20.80
2022-08-12T22:18:50.229Z,20.70
2022-08-12T22:21:19.873Z,21.20
2022-08-12T22:24:04.895Z,20.80
2022-08-12T22:26:37.353Z,20.80
2022-08-12T22:29:27.456Z,20.80
2022-08-12T22:31:56.133Z,20.80
2022-08-12T22:34:29.741Z,20.80
2022-08-12T22:37:00.117Z,20.90
2022-08-12T22:39:27.139Z,20.80
2022-08-12T22:42:12.810Z,20.70
2022-08-12T22:44:57.934Z,20.70
2022-08-12T22:47:45.788Z,20.70
2022-08-12T22:50:27.377Z,20.80
2022-08-12T22:53:15.578Z,20.70
2022-08-12T22:56:06.201Z,20.80
2022-08-12T22:58:40.258Z,20.70
2022-08-12T23:01:10.822Z,20.60
2022-08-12T23:03:49.225Z,20.60
2022-08-12T23:06:23.933Z,20.60
2022-08-12T23:08:52.731Z,20.60
2022-08-12T23:11:23.490Z,20.50
2022-08-12T23:13:56.404Z,20.50
2022-08-12T23:16:33.009Z,20.40
2022-08-12T23:19:10.532Z,20.40
2022-08-12T23:22:06.422Z,20.30
2022-08-12T23:24:55.868Z,20.30
2022-08-12T23:27:50.968Z,20.30
2022-08-12T23:30:31.699Z,20.20
2022-08-12T23:33:20.279Z,20.10
2022-08-12T23:35:58.943Z,20.20
2022-08-12T23:38:32.248Z,20.00
2022-08-12T23:41:05.743Z,20.10
2022-08-12T23:43:39.701Z,20.00
2022-08-12T23:46:09.499Z,19.90
2022-08-12T23:48:37.837Z,19.90
2022-08-12T23:51:21.973Z,19.90
2022-08-12T23:54:07.442Z,19.80
2022-08-12T23:56:37.374Z,19.80
2022-08-12T23:59:07.208Z,19.90
